sensor_id;sensor_type;location;lat;lon;timestamp;temperature;humidity
42031;DHT22;27709;52.036;5.906;2022-09-30T00:00:42;6.70;99.90
42031;DHT22;27709;52.036;5.906;2022-09-30T00:03:08;6.70;99.90
42031;DHT22;27709;52.036;5.906;2022-09-30T00:05:34;6.70;99.90
42031;DHT22;27709;52.036;5.906;2022-09-30T00:07:59;6.60;99.90
42031;DHT22;27709;52.036;5.906;2022-09-30T00:10:25;6.60;99.90
42031;DHT22;27709;52.036;5.906;2022-09-30T00:12:51;6.60;99.90
42031;DHT22;27709;52.036;5.906;2022-09-30T00:15:19;6.70;99.90
42031;DHT22;27709;52.036;5.906;2022-09-30T00:17:46;6.70;99.90
42031;DHT22;27709;52.036;5.906;2022-09-30T00:20:12;6.60;99.90
42031;DHT22;27709;52.036;5.906;2022-09-30T00:22:40;6.60;99.90
42031;DHT22;27709;52.036;5.906;2022-09-30T00:25:06;6.60;99.90
42031;DHT22;27709;52.036;5.906;2022-09-30T00:27:33;6.60;99.90
42031;DHT22;27709;52.036;5.906;2022-09-30T00:29:58;6.60;99.90
42031;DHT22;27709;52.036;5.906;2022-09-30T00:32:24;6.50;99.90
42031;DHT22;27709;52.036;5.906;2022-09-30T00:34:49;6.50;99.90
42031;DHT22;27709;52.036;5.906;2022-09-30T00:37:15;6.50;99.90
42031;DHT22;27709;52.036;5.906;2022-09-30T00:39:41;6.50;99.90
42031;DHT22;27709;52.036;5.906;2022-09-30T00:42:10;6.50;99.90
42031;DHT22;27709;52.036;5.906;2022-09-30T00:44:55;6.50;99.90
42031;DHT22;27709;52.036;5.906;2022-09-30T00:49:54;6.40;99.90
42031;DHT22;27709;52.036;5.906;2022-09-30T00:52:22;6.30;99.90
42031;DHT22;27709;52.036;5.906;2022-09-30T00:54:48;6.30;99.90
42031;DHT22;27709;52.036;5.906;2022-09-30T00:57:16;6.30;99.90
42031;DHT22;27709;52.036;5.906;2022-09-30T00:59:44;6.30;99.90
42031;DHT22;27709;52.036;5.906;2022-09-30T01:02:11;6.20;99.90
42031;DHT22;27709;52.036;5.906;2022-09-30T01:04:39;6.20;99.90
42031;DHT22;27709;52.036;5.906;2022-09-30T01:07:07;6.20;99.90
42031;DHT22;27709;52.036;5.906;2022-09-30T01:09:38;6.20;99.90
42031;DHT22;27709;52.036;5.906;2022-09-30T01:12:20;6.30;99.90
42031;DHT22;27709;52.036;5.906;2022-09-30T01:14:49;6.30;99.90
42031;DHT22;27709;52.036;5.906;2022-09-30T01:17:35;6.20;99.90
42031;DHT22;27709;52.036;5.906;2022-09-30T01:26:55;6.10;99.90
42031;DHT22;27709;52.036;5.906;2022-09-30T01:30:02;6.10;99.90
42031;DHT22;27709;52.036;5.906;2022-09-30T01:36:09;6.10;99.90
42031;DHT22;27709;52.036;5.906;2022-09-30T01:38:48;6.10;99.90
42031;DHT22;27709;52.036;5.906;2022-09-30T01:41:27;6.10;99.90
42031;DHT22;27709;52.036;5.906;2022-09-30T01:47:24;6.00;99.90
42031;DHT22;27709;52.036;5.906;2022-09-30T01:50:17;6.00;99.90
42031;DHT22;27709;52.036;5.906;2022-09-30T01:52:55;5.90;99.90
42031;DHT22;27709;52.036;5.906;2022-09-30T01:55:29;5.90;99.90
42031;DHT22;27709;52.036;5.906;2022-09-30T01:58:20;5.90;99.90
42031;DHT22;27709;52.036;5.906;2022-09-30T02:00:53;5.80;99.90
42031;DHT22;27709;52.036;5.906;2022-09-30T02:03:43;5.80;99.90
42031;DHT22;27709;52.036;5.906;2022-09-30T02:06:16;5.80;99.90
42031;DHT22;27709;52.036;5.906;2022-09-30T02:09:01;5.80;99.90
42031;DHT22;27709;52.036;5.906;2022-09-30T02:11:32;5.80;99.90
42031;DHT22;27709;52.036;5.906;2022-09-30T02:14:54;5.80;99.90
42031;DHT22;27709;52.036;5.906;2022-09-30T02:17:28;5.80;99.90
42031;DHT22;27709;52.036;5.906;2022-09-30T02:20:17;5.70;99.90
42031;DHT22;27709;52.036;5.906;2022-09-30T02:22:53;5.70;99.90
42031;DHT22;27709;52.036;5.906;2022-09-30T02:25:26;5.80;99.90
42031;DHT22;27709;52.036;5.906;2022-09-30T02:27:58;5.70;99.90
42031;DHT22;27709;52.036;5.906;2022-09-30T02:30:31;5.70;99.90
42031;DHT22;27709;52.036;5.906;2022-09-30T02:33:03;5.70;99.90
42031;DHT22;27709;52.036;5.906;2022-09-30T02:35:35;5.70;99.90
42031;DHT22;27709;52.036;5.906;2022-09-30T02:38:17;5.60;99.90
42031;DHT22;27709;52.036;5.906;2022-09-30T02:40:55;5.60;99.90
42031;DHT22;27709;52.036;5.906;2022-09-30T02:43:23;5.50;99.90
42031;DHT22;27709;52.036;5.906;2022-09-30T02:46:32;5.60;99.90
42031;DHT22;27709;52.036;5.906;2022-09-30T02:49:02;5.60;99.90
42031;DHT22;27709;52.036;5.906;2022-09-30T02:52:01;5.50;99.90
42031;DHT22;27709;52.036;5.906;2022-09-30T02:54:41;5.40;99.90
42031;DHT22;27709;52.036;5.906;2022-09-30T02:57:19;5.40;99.90
42031;DHT22;27709;52.036;5.906;2022-09-30T02:59:50;5.40;99.90
42031;DHT22;27709;52.036;5.906;2022-09-30T03:02:17;5.30;99.90
42031;DHT22;27709;52.036;5.906;2022-09-30T03:04:45;5.40;99.90
42031;DHT22;27709;52.036;5.906;2022-09-30T03:07:12;5.40;99.90
42031;DHT22;27709;52.036;5.906;2022-09-30T03:09:38;5.40;99.90
42031;DHT22;27709;52.036;5.906;2022-09-30T03:17:36;5.30;99.90
42031;DHT22;27709;52.036;5.906;2022-09-30T03:20:44;5.30;99.90
42031;DHT22;27709;52.036;5.906;2022-09-30T03:26:47;5.30;99.90
42031;DHT22;27709;52.036;5.906;2022-09-30T03:29:46;5.40;99.90
42031;DHT22;27709;52.036;5.906;2022-09-30T03:40:39;5.40;99.90
42031;DHT22;27709;52.036;5.906;2022-09-30T03:43:15;5.40;99.90
42031;DHT22;27709;52.036;5.906;2022-09-30T03:48:40;5.30;99.90
42031;DHT22;27709;52.036;5.906;2022-09-30T03:51:10;5.30;99.90
42031;DHT22;27709;52.036;5.906;2022-09-30T03:53:42;5.20;99.90
42031;DHT22;27709;52.036;5.906;2022-09-30T03:56:12;5.20;99.90
42031;DHT22;27709;52.036;5.906;2022-09-30T03:58:43;5.20;99.90
42031;DHT22;27709;52.036;5.906;2022-09-30T04:01:17;5.10;99.90
42031;DHT22;27709;52.036;5.906;2022-09-30T04:03:50;5.10;99.90
42031;DHT22;27709;52.036;5.906;2022-09-30T04:06:20;5.10;99.90
42031;DHT22;27709;52.036;5.906;2022-09-30T04:08:46;5.00;99.90
42031;DHT22;27709;52.036;5.906;2022-09-30T04:11:11;5.10;99.90
42031;DHT22;27709;52.036;5.906;2022-09-30T04:13:37;5.10;99.90
42031;DHT22;27709;52.036;5.906;2022-09-30T04:16:07;5.10;99.90
42031;DHT22;27709;52.036;5.906;2022-09-30T04:18:37;5.10;99.90
42031;DHT22;27709;52.036;5.906;2022-09-30T04:21:11;5.00;99.90
42031;DHT22;27709;52.036;5.906;2022-09-30T04:23:40;5.00;99.90
42031;DHT22;27709;52.036;5.906;2022-09-30T04:26:09;5.10;99.90
42031;DHT22;27709;52.036;5.906;2022-09-30T04:28:35;5.10;99.90
42031;DHT22;27709;52.036;5.906;2022-09-30T04:31:02;5.10;99.90
42031;DHT22;27709;52.036;5.906;2022-09-30T04:33:28;5.20;99.90
42031;DHT22;27709;52.036;5.906;2022-09-30T04:35:56;5.20;99.90
42031;DHT22;27709;52.036;5.906;2022-09-30T04:38:24;5.20;99.90
42031;DHT22;27709;52.036;5.906;2022-09-30T04:40:50;5.20;99.90
42031;DHT22;27709;52.036;5.906;2022-09-30T04:43:17;5.20;99.90
42031;DHT22;27709;52.036;5.906;2022-09-30T04:45:44;5.10;99.90
42031;DHT22;27709;52.036;5.906;2022-09-30T04:48:12;5.10;99.90
42031;DHT22;27709;52.036;5.906;2022-09-30T04:50:38;5.00;99.90
42031;DHT22;27709;52.036;5.906;2022-09-30T04:53:04;5.00;99.90
42031;DHT22;27709;52.036;5.906;2022-09-30T04:55:31;4.90;99.90
42031;DHT22;27709;52.036;5.906;2022-09-30T04:57:57;4.90;99.90
42031;DHT22;27709;52.036;5.906;2022-09-30T05:00:22;4.90;99.90
42031;DHT22;27709;52.036;5.906;2022-09-30T05:02:50;4.90;99.90
42031;DHT22;27709;52.036;5.906;2022-09-30T05:05:16;4.80;99.90
42031;DHT22;27709;52.036;5.906;2022-09-30T05:07:44;4.90;99.90
42031;DHT22;27709;52.036;5.906;2022-09-30T05:10:10;4.80;99.90
42031;DHT22;27709;52.036;5.906;2022-09-30T05:12:37;4.80;99.90
42031;DHT22;27709;52.036;5.906;2022-09-30T05:15:05;4.80;99.90
42031;DHT22;27709;52.036;5.906;2022-09-30T05:17:31;4.90;99.90
42031;DHT22;27709;52.036;5.906;2022-09-30T05:19:57;4.90;99.90
42031;DHT22;27709;52.036;5.906;2022-09-30T05:22:23;5.00;99.90
42031;DHT22;27709;52.036;5.906;2022-09-30T05:24:52;5.20;99.90
42031;DHT22;27709;52.036;5.906;2022-09-30T05:27:19;5.30;99.90
42031;DHT22;27709;52.036;5.906;2022-09-30T05:29:45;5.50;99.90
42031;DHT22;27709;52.036;5.906;2022-09-30T05:32:10;5.60;99.90
42031;DHT22;27709;52.036;5.906;2022-09-30T05:34:36;5.60;99.90
42031;DHT22;27709;52.036;5.906;2022-09-30T05:37:03;5.70;99.90
42031;DHT22;27709;52.036;5.906;2022-09-30T05:39:29;5.70;99.90
42031;DHT22;27709;52.036;5.906;2022-09-30T05:41:56;5.70;99.90
42031;DHT22;27709;52.036;5.906;2022-09-30T05:44:21;5.70;99.90
42031;DHT22;27709;52.036;5.906;2022-09-30T05:46:47;5.80;99.90
42031;DHT22;27709;52.036;5.906;2022-09-30T05:49:13;5.90;99.90
42031;DHT22;27709;52.036;5.906;2022-09-30T05:51:38;5.90;99.90
42031;DHT22;27709;52.036;5.906;2022-09-30T05:54:04;6.00;99.90
42031;DHT22;27709;52.036;5.906;2022-09-30T05:56:29;6.00;99.90
42031;DHT22;27709;52.036;5.906;2022-09-30T05:58:55;6.00;99.90
42031;DHT22;27709;52.036;5.906;2022-09-30T06:01:21;6.00;99.90
42031;DHT22;27709;52.036;5.906;2022-09-30T06:03:46;5.90;99.90
42031;DHT22;27709;52.036;5.906;2022-09-30T06:06:13;5.80;99.90
42031;DHT22;27709;52.036;5.906;2022-09-30T06:08:39;5.70;99.90
42031;DHT22;27709;52.036;5.906;2022-09-30T06:11:11;5.70;99.90
42031;DHT22;27709;52.036;5.906;2022-09-30T06:13:36;5.70;99.90
42031;DHT22;27709;52.036;5.906;2022-09-30T06:16:02;5.80;99.90
42031;DHT22;27709;52.036;5.906;2022-09-30T06:18:30;5.90;99.90
42031;DHT22;27709;52.036;5.906;2022-09-30T06:20:56;6.00;99.90
42031;DHT22;27709;52.036;5.906;2022-09-30T06:23:23;6.00;99.90
42031;DHT22;27709;52.036;5.906;2022-09-30T06:25:52;6.00;99.90
42031;DHT22;27709;52.036;5.906;2022-09-30T06:28:19;6.10;99.90
42031;DHT22;27709;52.036;5.906;2022-09-30T06:30:45;6.20;99.90
42031;DHT22;27709;52.036;5.906;2022-09-30T06:33:12;6.40;99.90
42031;DHT22;27709;52.036;5.906;2022-09-30T06:35:38;6.50;99.90
42031;DHT22;27709;52.036;5.906;2022-09-30T06:38:06;6.60;99.90
42031;DHT22;27709;52.036;5.906;2022-09-30T06:40:32;6.80;99.90
42031;DHT22;27709;52.036;5.906;2022-09-30T06:42:59;6.90;99.90
42031;DHT22;27709;52.036;5.906;2022-09-30T06:45:27;7.10;99.90
42031;DHT22;27709;52.036;5.906;2022-09-30T06:47:57;7.30;99.90
42031;DHT22;27709;52.036;5.906;2022-09-30T06:50:25;7.40;99.90
42031;DHT22;27709;52.036;5.906;2022-09-30T06:52:51;7.50;99.90
42031;DHT22;27709;52.036;5.906;2022-09-30T06:55:21;7.60;99.90
42031;DHT22;27709;52.036;5.906;2022-09-30T06:57:48;7.60;99.90
42031;DHT22;27709;52.036;5.906;2022-09-30T07:00:14;7.70;99.90
42031;DHT22;27709;52.036;5.906;2022-09-30T07:02:41;7.70;99.90
42031;DHT22;27709;52.036;5.906;2022-09-30T07:05:07;7.80;99.90
42031;DHT22;27709;52.036;5.906;2022-09-30T07:07:36;7.90;99.90
42031;DHT22;27709;52.036;5.906;2022-09-30T07:10:03;8.00;99.90
42031;DHT22;27709;52.036;5.906;2022-09-30T07:12:29;8.10;99.90
42031;DHT22;27709;52.036;5.906;2022-09-30T07:14:54;8.20;99.90
42031;DHT22;27709;52.036;5.906;2022-09-30T07:17:21;8.30;99.90
42031;DHT22;27709;52.036;5.906;2022-09-30T07:19:47;8.50;99.90
42031;DHT22;27709;52.036;5.906;2022-09-30T07:22:14;8.60;99.90
42031;DHT22;27709;52.036;5.906;2022-09-30T07:24:51;8.70;99.90
42031;DHT22;27709;52.036;5.906;2022-09-30T07:27:17;8.90;99.90
42031;DHT22;27709;52.036;5.906;2022-09-30T07:29:43;9.00;99.90
42031;DHT22;27709;52.036;5.906;2022-09-30T07:32:10;9.10;99.90
42031;DHT22;27709;52.036;5.906;2022-09-30T07:34:36;9.30;99.90
42031;DHT22;27709;52.036;5.906;2022-09-30T07:37:13;9.70;99.90
42031;DHT22;27709;52.036;5.906;2022-09-30T07:39:40;10.40;99.90
42031;DHT22;27709;52.036;5.906;2022-09-30T07:42:06;11.10;99.90
42031;DHT22;27709;52.036;5.906;2022-09-30T07:44:32;11.80;99.90
42031;DHT22;27709;52.036;5.906;2022-09-30T07:46:59;12.40;99.90
42031;DHT22;27709;52.036;5.906;2022-09-30T07:49:26;12.90;99.90
42031;DHT22;27709;52.036;5.906;2022-09-30T07:51:54;13.50;99.90
42031;DHT22;27709;52.036;5.906;2022-09-30T07:54:22;13.90;99.50
42031;DHT22;27709;52.036;5.906;2022-09-30T07:56:50;14.40;99.20
42031;DHT22;27709;52.036;5.906;2022-09-30T07:59:16;14.80;98.30
42031;DHT22;27709;52.036;5.906;2022-09-30T08:01:42;15.10;97.40
42031;DHT22;27709;52.036;5.906;2022-09-30T08:04:10;15.50;96.90
42031;DHT22;27709;52.036;5.906;2022-09-30T08:06:38;15.80;96.10
42031;DHT22;27709;52.036;5.906;2022-09-30T08:09:05;16.10;95.70
42031;DHT22;27709;52.036;5.906;2022-09-30T08:11:35;16.30;95.60
42031;DHT22;27709;52.036;5.906;2022-09-30T08:14:01;16.70;94.70
42031;DHT22;27709;52.036;5.906;2022-09-30T08:16:26;16.80;93.80
42031;DHT22;27709;52.036;5.906;2022-09-30T08:19:00;17.00;93.60
42031;DHT22;27709;52.036;5.906;2022-09-30T08:21:26;17.10;92.40
42031;DHT22;27709;52.036;5.906;2022-09-30T08:23:52;17.20;92.40
42031;DHT22;27709;52.036;5.906;2022-09-30T08:26:18;17.40;92.00
42031;DHT22;27709;52.036;5.906;2022-09-30T08:28:44;17.60;91.50
42031;DHT22;27709;52.036;5.906;2022-09-30T08:31:21;17.70;91.40
42031;DHT22;27709;52.036;5.906;2022-09-30T08:33:47;17.90;91.10
42031;DHT22;27709;52.036;5.906;2022-09-30T08:36:21;18.10;90.40
42031;DHT22;27709;52.036;5.906;2022-09-30T08:38:47;18.20;90.10
42031;DHT22;27709;52.036;5.906;2022-09-30T08:44:10;18.30;87.20
42031;DHT22;27709;52.036;5.906;2022-09-30T08:49:41;18.40;88.00
42031;DHT22;27709;52.036;5.906;2022-09-30T08:52:19;18.70;88.50
42031;DHT22;27709;52.036;5.906;2022-09-30T08:54:49;18.90;88.60
42031;DHT22;27709;52.036;5.906;2022-09-30T08:57:16;19.10;87.70
42031;DHT22;27709;52.036;5.906;2022-09-30T09:02:54;19.30;84.60
42031;DHT22;27709;52.036;5.906;2022-09-30T09:05:28;19.40;83.70
42031;DHT22;27709;52.036;5.906;2022-09-30T09:08:10;19.40;84.00
42031;DHT22;27709;52.036;5.906;2022-09-30T09:13:19;19.60;84.80
42031;DHT22;27709;52.036;5.906;2022-09-30T09:19:07;19.90;82.20
42031;DHT22;27709;52.036;5.906;2022-09-30T09:24:05;20.00;81.40
42031;DHT22;27709;52.036;5.906;2022-09-30T09:26:38;20.00;81.40
42031;DHT22;27709;52.036;5.906;2022-09-30T09:31:35;20.20;80.20
42031;DHT22;27709;52.036;5.906;2022-09-30T09:34:10;20.20;80.20
42031;DHT22;27709;52.036;5.906;2022-09-30T09:37:06;20.30;79.20
42031;DHT22;27709;52.036;5.906;2022-09-30T09:39:57;20.30;80.20
42031;DHT22;27709;52.036;5.906;2022-09-30T09:43:03;20.40;80.50
42031;DHT22;27709;52.036;5.906;2022-09-30T09:45:41;20.50;78.90
42031;DHT22;27709;52.036;5.906;2022-09-30T09:48:12;20.60;78.60
42031;DHT22;27709;52.036;5.906;2022-09-30T09:50:57;20.70;80.00
42031;DHT22;27709;52.036;5.906;2022-09-30T09:56:15;20.70;76.70
42031;DHT22;27709;52.036;5.906;2022-09-30T09:59:12;20.50;77.10
42031;DHT22;27709;52.036;5.906;2022-09-30T10:01:41;20.30;77.40
42031;DHT22;27709;52.036;5.906;2022-09-30T10:04:27;20.20;77.90
42031;DHT22;27709;52.036;5.906;2022-09-30T10:06:59;20.30;78.60
42031;DHT22;27709;52.036;5.906;2022-09-30T10:09:34;20.20;79.40
42031;DHT22;27709;52.036;5.906;2022-09-30T10:14:33;20.40;79.20
42031;DHT22;27709;52.036;5.906;2022-09-30T10:17:01;20.50;79.00
42031;DHT22;27709;52.036;5.906;2022-09-30T10:19:29;20.60;78.80
42031;DHT22;27709;52.036;5.906;2022-09-30T10:24:42;20.70;79.00
42031;DHT22;27709;52.036;5.906;2022-09-30T10:27:31;20.70;78.20
42031;DHT22;27709;52.036;5.906;2022-09-30T10:29:57;20.80;78.90
42031;DHT22;27709;52.036;5.906;2022-09-30T10:32:24;20.80;79.90
42031;DHT22;27709;52.036;5.906;2022-09-30T10:35:01;20.90;77.90
42031;DHT22;27709;52.036;5.906;2022-09-30T10:37:28;20.90;77.90
42031;DHT22;27709;52.036;5.906;2022-09-30T10:40:03;20.90;78.00
42031;DHT22;27709;52.036;5.906;2022-09-30T10:42:36;20.90;77.50
42031;DHT22;27709;52.036;5.906;2022-09-30T10:45:06;20.80;77.30
42031;DHT22;27709;52.036;5.906;2022-09-30T10:47:36;20.80;76.50
42031;DHT22;27709;52.036;5.906;2022-09-30T10:50:11;20.60;76.80
42031;DHT22;27709;52.036;5.906;2022-09-30T10:52:45;20.50;76.90
42031;DHT22;27709;52.036;5.906;2022-09-30T10:55:25;20.40;78.00
42031;DHT22;27709;52.036;5.906;2022-09-30T10:58:24;20.40;77.40
42031;DHT22;27709;52.036;5.906;2022-09-30T11:03:36;20.20;77.10
42031;DHT22;27709;52.036;5.906;2022-09-30T11:06:04;20.10;77.90
42031;DHT22;27709;52.036;5.906;2022-09-30T11:08:48;20.20;78.70
42031;DHT22;27709;52.036;5.906;2022-09-30T11:11:26;20.10;76.80
42031;DHT22;27709;52.036;5.906;2022-09-30T11:19:47;20.20;78.20
42031;DHT22;27709;52.036;5.906;2022-09-30T11:24:59;20.20;77.40
42031;DHT22;27709;52.036;5.906;2022-09-30T11:27:49;20.10;75.90
42031;DHT22;27709;52.036;5.906;2022-09-30T11:30:32;20.10;76.70
42031;DHT22;27709;52.036;5.906;2022-09-30T11:35:50;19.90;76.70
42031;DHT22;27709;52.036;5.906;2022-09-30T11:41:27;20.00;77.40
42031;DHT22;27709;52.036;5.906;2022-09-30T11:46:56;20.10;76.10
42031;DHT22;27709;52.036;5.906;2022-09-30T11:52:35;19.90;76.50
42031;DHT22;27709;52.036;5.906;2022-09-30T11:55:32;19.70;75.40
42031;DHT22;27709;52.036;5.906;2022-09-30T11:58:07;19.50;76.60
42031;DHT22;27709;52.036;5.906;2022-09-30T12:00:36;19.40;78.00
42031;DHT22;27709;52.036;5.906;2022-09-30T12:03:09;19.50;77.00
42031;DHT22;27709;52.036;5.906;2022-09-30T12:05:43;19.60;77.40
42031;DHT22;27709;52.036;5.906;2022-09-30T12:08:11;19.70;77.00
42031;DHT22;27709;52.036;5.906;2022-09-30T12:13:29;19.60;76.20
42031;DHT22;27709;52.036;5.906;2022-09-30T12:15:57;19.50;76.00
42031;DHT22;27709;52.036;5.906;2022-09-30T12:18:41;19.50;76.20
42031;DHT22;27709;52.036;5.906;2022-09-30T12:21:33;19.20;77.00
42031;DHT22;27709;52.036;5.906;2022-09-30T12:24:13;19.10;77.30
42031;DHT22;27709;52.036;5.906;2022-09-30T12:26:43;19.00;78.20
42031;DHT22;27709;52.036;5.906;2022-09-30T12:49:05;18.90;79.50
42031;DHT22;27709;52.036;5.906;2022-09-30T12:51:34;19.00;79.60
42031;DHT22;27709;52.036;5.906;2022-09-30T12:54:23;19.20;79.40
42031;DHT22;27709;52.036;5.906;2022-09-30T12:56:57;19.40;78.60
42031;DHT22;27709;52.036;5.906;2022-09-30T12:59:30;19.40;77.20
42031;DHT22;27709;52.036;5.906;2022-09-30T13:01:57;19.50;76.70
42031;DHT22;27709;52.036;5.906;2022-09-30T13:04:33;19.30;76.90
42031;DHT22;27709;52.036;5.906;2022-09-30T13:07:11;19.10;77.20
42031;DHT22;27709;52.036;5.906;2022-09-30T13:09:56;19.20;78.30
42031;DHT22;27709;52.036;5.906;2022-09-30T13:23:54;19.00;76.70
42031;DHT22;27709;52.036;5.906;2022-09-30T13:26:32;18.80;76.90
42031;DHT22;27709;52.036;5.906;2022-09-30T13:34:22;18.70;77.40
42031;DHT22;27709;52.036;5.906;2022-09-30T13:42:05;18.70;77.70
42031;DHT22;27709;52.036;5.906;2022-09-30T13:47:28;18.70;77.30
42031;DHT22;27709;52.036;5.906;2022-09-30T13:50:14;18.70;77.30
42031;DHT22;27709;52.036;5.906;2022-09-30T13:52:42;18.60;77.90
42031;DHT22;27709;52.036;5.906;2022-09-30T13:55:35;18.50;78.90
42031;DHT22;27709;52.036;5.906;2022-09-30T14:01:12;18.20;79.60
42031;DHT22;27709;52.036;5.906;2022-09-30T14:06:46;18.30;80.40
42031;DHT22;27709;52.036;5.906;2022-09-30T14:20:27;18.10;81.50
42031;DHT22;27709;52.036;5.906;2022-09-30T14:22:55;18.20;80.70
42031;DHT22;27709;52.036;5.906;2022-09-30T14:25:24;18.00;80.10
42031;DHT22;27709;52.036;5.906;2022-09-30T14:28:13;17.90;80.70
42031;DHT22;27709;52.036;5.906;2022-09-30T14:30:41;18.00;81.30
42031;DHT22;27709;52.036;5.906;2022-09-30T14:33:27;17.90;81.20
42031;DHT22;27709;52.036;5.906;2022-09-30T14:35:59;17.90;81.60
42031;DHT22;27709;52.036;5.906;2022-09-30T14:38:33;17.90;81.50
42031;DHT22;27709;52.036;5.906;2022-09-30T14:41:03;17.90;81.70
42031;DHT22;27709;52.036;5.906;2022-09-30T14:43:36;17.90;81.50
42031;DHT22;27709;52.036;5.906;2022-09-30T14:46:21;17.80;81.70
42031;DHT22;27709;52.036;5.906;2022-09-30T14:48:49;17.70;82.50
42031;DHT22;27709;52.036;5.906;2022-09-30T14:51:16;17.60;83.00
42031;DHT22;27709;52.036;5.906;2022-09-30T14:53:54;17.50;83.30
42031;DHT22;27709;52.036;5.906;2022-09-30T14:56:26;17.50;83.60
42031;DHT22;27709;52.036;5.906;2022-09-30T14:58:52;17.50;83.40
42031;DHT22;27709;52.036;5.906;2022-09-30T15:01:21;17.50;83.60
42031;DHT22;27709;52.036;5.906;2022-09-30T15:03:52;17.50;83.60
42031;DHT22;27709;52.036;5.906;2022-09-30T15:06:32;17.40;83.20
42031;DHT22;27709;52.036;5.906;2022-09-30T15:09:04;17.40;83.20
42031;DHT22;27709;52.036;5.906;2022-09-30T15:11:30;17.20;83.00
42031;DHT22;27709;52.036;5.906;2022-09-30T15:14:18;17.20;83.30
42031;DHT22;27709;52.036;5.906;2022-09-30T15:16:50;17.20;83.60
42031;DHT22;27709;52.036;5.906;2022-09-30T15:19:32;17.10;83.70
42031;DHT22;27709;52.036;5.906;2022-09-30T15:22:04;17.00;83.50
42031;DHT22;27709;52.036;5.906;2022-09-30T15:24:31;17.00;84.20
42031;DHT22;27709;52.036;5.906;2022-09-30T15:27:02;16.90;84.50
42031;DHT22;27709;52.036;5.906;2022-09-30T15:29:28;16.90;84.20
42031;DHT22;27709;52.036;5.906;2022-09-30T15:34:21;16.90;84.90
42031;DHT22;27709;52.036;5.906;2022-09-30T15:36:59;16.80;84.80
42031;DHT22;27709;52.036;5.906;2022-09-30T15:39:32;16.90;85.10
42031;DHT22;27709;52.036;5.906;2022-09-30T15:42:30;16.90;85.30
42031;DHT22;27709;52.036;5.906;2022-09-30T15:45:02;17.00;85.20
42031;DHT22;27709;52.036;5.906;2022-09-30T15:47:30;17.10;85.40
42031;DHT22;27709;52.036;5.906;2022-09-30T15:49:55;17.10;85.60
42031;DHT22;27709;52.036;5.906;2022-09-30T15:52:36;17.10;85.70
42031;DHT22;27709;52.036;5.906;2022-09-30T15:55:30;17.20;85.30
42031;DHT22;27709;52.036;5.906;2022-09-30T15:57:56;17.20;85.40
42031;DHT22;27709;52.036;5.906;2022-09-30T16:00:35;17.10;85.40
42031;DHT22;27709;52.036;5.906;2022-09-30T16:03:11;17.00;85.80
42031;DHT22;27709;52.036;5.906;2022-09-30T16:05:38;16.90;86.20
42031;DHT22;27709;52.036;5.906;2022-09-30T16:08:09;16.80;86.70
42031;DHT22;27709;52.036;5.906;2022-09-30T16:10:35;16.70;86.50
42031;DHT22;27709;52.036;5.906;2022-09-30T16:13:03;16.70;86.80
42031;DHT22;27709;52.036;5.906;2022-09-30T16:15:29;16.50;86.30
42031;DHT22;27709;52.036;5.906;2022-09-30T16:17:55;16.40;86.70
42031;DHT22;27709;52.036;5.906;2022-09-30T16:20:24;16.40;87.20
42031;DHT22;27709;52.036;5.906;2022-09-30T16:22:52;16.30;87.50
42031;DHT22;27709;52.036;5.906;2022-09-30T16:25:30;16.20;87.60
42031;DHT22;27709;52.036;5.906;2022-09-30T16:28:09;16.10;87.70
42031;DHT22;27709;52.036;5.906;2022-09-30T16:30:41;16.10;88.00
42031;DHT22;27709;52.036;5.906;2022-09-30T16:33:10;16.20;88.00
42031;DHT22;27709;52.036;5.906;2022-09-30T16:35:37;16.10;88.00
42031;DHT22;27709;52.036;5.906;2022-09-30T16:38:06;16.10;88.20
42031;DHT22;27709;52.036;5.906;2022-09-30T16:40:33;16.00;88.60
42031;DHT22;27709;52.036;5.906;2022-09-30T16:43:00;15.90;88.70
42031;DHT22;27709;52.036;5.906;2022-09-30T16:45:36;15.80;89.00
42031;DHT22;27709;52.036;5.906;2022-09-30T16:48:10;15.70;89.20
42031;DHT22;27709;52.036;5.906;2022-09-30T16:50:40;15.70;89.70
42031;DHT22;27709;52.036;5.906;2022-09-30T16:53:08;15.60;89.80
42031;DHT22;27709;52.036;5.906;2022-09-30T16:55:39;15.50;90.00
42031;DHT22;27709;52.036;5.906;2022-09-30T16:58:05;15.40;90.10
42031;DHT22;27709;52.036;5.906;2022-09-30T17:00:33;15.40;90.20
42031;DHT22;27709;52.036;5.906;2022-09-30T17:02:59;15.30;90.30
42031;DHT22;27709;52.036;5.906;2022-09-30T17:05:25;15.20;90.40
42031;DHT22;27709;52.036;5.906;2022-09-30T17:07:54;15.20;90.60
42031;DHT22;27709;52.036;5.906;2022-09-30T17:10:24;15.10;90.70
42031;DHT22;27709;52.036;5.906;2022-09-30T17:12:50;15.00;90.90
42031;DHT22;27709;52.036;5.906;2022-09-30T17:15:18;15.00;91.00
42031;DHT22;27709;52.036;5.906;2022-09-30T17:17:44;15.00;91.10
42031;DHT22;27709;52.036;5.906;2022-09-30T17:20:10;14.90;91.10
42031;DHT22;27709;52.036;5.906;2022-09-30T17:22:37;14.80;91.20
42031;DHT22;27709;52.036;5.906;2022-09-30T17:25:03;14.80;91.40
42031;DHT22;27709;52.036;5.906;2022-09-30T17:27:29;14.80;91.50
42031;DHT22;27709;52.036;5.906;2022-09-30T17:29:54;14.70;91.70
42031;DHT22;27709;52.036;5.906;2022-09-30T17:32:20;14.60;91.70
42031;DHT22;27709;52.036;5.906;2022-09-30T17:34:48;14.60;91.70
42031;DHT22;27709;52.036;5.906;2022-09-30T17:37:14;14.60;91.80
42031;DHT22;27709;52.036;5.906;2022-09-30T17:39:40;14.60;91.80
42031;DHT22;27709;52.036;5.906;2022-09-30T17:42:08;14.50;92.00
42031;DHT22;27709;52.036;5.906;2022-09-30T17:44:54;14.50;92.00
42031;DHT22;27709;52.036;5.906;2022-09-30T17:47:20;14.40;92.10
42031;DHT22;27709;52.036;5.906;2022-09-30T17:49:46;14.40;92.20
42031;DHT22;27709;52.036;5.906;2022-09-30T17:52:12;14.40;92.30
42031;DHT22;27709;52.036;5.906;2022-09-30T17:54:40;14.30;92.30
42031;DHT22;27709;52.036;5.906;2022-09-30T17:57:06;14.30;92.50
42031;DHT22;27709;52.036;5.906;2022-09-30T17:59:32;14.20;92.50
42031;DHT22;27709;52.036;5.906;2022-09-30T18:01:58;14.20;92.60
42031;DHT22;27709;52.036;5.906;2022-09-30T18:04:24;14.10;92.80
42031;DHT22;27709;52.036;5.906;2022-09-30T18:06:54;14.10;92.90
42031;DHT22;27709;52.036;5.906;2022-09-30T18:09:20;14.00;93.10
42031;DHT22;27709;52.036;5.906;2022-09-30T18:11:46;14.00;93.20
42031;DHT22;27709;52.036;5.906;2022-09-30T18:14:12;14.00;93.30
42031;DHT22;27709;52.036;5.906;2022-09-30T18:16:38;14.00;93.40
42031;DHT22;27709;52.036;5.906;2022-09-30T18:19:05;13.90;93.40
42031;DHT22;27709;52.036;5.906;2022-09-30T18:21:32;13.90;93.50
42031;DHT22;27709;52.036;5.906;2022-09-30T18:23:58;13.80;93.50
42031;DHT22;27709;52.036;5.906;2022-09-30T18:26:26;13.80;93.50
42031;DHT22;27709;52.036;5.906;2022-09-30T18:28:54;13.80;93.50
42031;DHT22;27709;52.036;5.906;2022-09-30T18:31:25;13.80;93.60
42031;DHT22;27709;52.036;5.906;2022-09-30T18:34:01;13.80;93.70
42031;DHT22;27709;52.036;5.906;2022-09-30T18:36:28;13.70;93.80
42031;DHT22;27709;52.036;5.906;2022-09-30T18:38:54;13.70;93.80